Time;durP1;ratioP1;P1;durP2;ratioP2;P2;SDS_P1;SDS_P2;PMS_P1;PMS_P2;Temp;Humidity;BMP_temperature;BMP_pressure;BME280_temperature;BME280_humidity;BME280_pressure;Samples;Min_cycle;Max_cycle;Signal;HPM_P1;HPM_P2
2023/08/10 00:02:18;;;;;;;2.30;1.73;;;23.40;53.40;;;;;;5011907;28;20490;-72
2023/08/10 00:04:44;;;;;;;1.93;1.80;;;23.40;53.40;;;;;;5011873;28;20172;-71
2023/08/10 00:07:10;;;;;;;1.70;1.40;;;23.40;53.40;;;;;;5011903;28;20302;-72
2023/08/10 00:09:35;;;;;;;1.87;1.50;;;23.40;53.40;;;;;;5011682;28;20514;-71
2023/08/10 00:12:01;;;;;;;2.07;1.80;;;23.40;53.40;;;;;;5011068;28;20196;-72
2023/08/10 00:14:27;;;;;;;1.63;1.43;;;23.40;53.40;;;;;;5011822;28;20723;-72
2023/08/10 00:16:52;;;;;;;1.60;1.43;;;23.40;53.40;;;;;;5012102;28;20172;-72
2023/08/10 00:19:18;;;;;;;2.00;1.60;;;23.40;53.40;;;;;;5011730;28;20193;-72
2023/08/10 00:21:44;;;;;;;3.40;1.50;;;23.40;53.40;;;;;;5011765;28;20284;-72
2023/08/10 00:24:09;;;;;;;2.27;1.60;;;23.40;53.40;;;;;;5011803;28;20200;-72
2023/08/10 00:26:35;;;;;;;1.80;1.30;;;23.40;53.40;;;;;;5011708;28;20535;-72
2023/08/10 00:29:00;;;;;;;1.57;1.30;;;23.40;53.50;;;;;;5011636;28;20191;-72
2023/08/10 00:31:26;;;;;;;1.60;1.30;;;23.40;53.50;;;;;;5011712;28;20180;-72
2023/08/10 00:33:52;;;;;;;1.70;1.50;;;23.40;53.50;;;;;;5011615;28;20200;-72
2023/08/10 00:36:18;;;;;;;2.37;1.43;;;23.40;53.50;;;;;;5011630;28;20494;-72
2023/08/10 00:38:43;;;;;;;2.90;1.70;;;23.40;53.50;;;;;;5012323;28;20235;-72
2023/08/10 00:41:09;;;;;;;2.87;1.50;;;23.40;53.50;;;;;;5015011;28;20218;-72
2023/08/10 00:43:35;;;;;;;1.60;1.50;;;23.40;53.50;;;;;;5015410;28;20194;-72
2023/08/10 00:46:01;;;;;;;1.90;1.70;;;23.40;53.50;;;;;;5015109;28;20207;-72
2023/08/10 00:48:27;;;;;;;2.27;1.40;;;23.40;53.50;;;;;;5015112;28;20204;-72
2023/08/10 00:50:53;;;;;;;2.10;1.63;;;23.40;53.50;;;;;;5014934;28;20522;-72
2023/08/10 00:53:19;;;;;;;2.77;2.03;;;23.40;53.50;;;;;;5014870;28;20887;-72
2023/08/10 00:55:51;;;;;;;1.70;1.20;;;23.40;53.50;;;;;;5015184;28;20411;-72
2023/08/10 00:58:20;;;;;;;2.07;1.30;;;23.40;53.50;;;;;;5014940;28;20621;-71
2023/08/10 01:00:46;;;;;;;1.73;1.60;;;23.40;53.50;;;;;;5014821;28;20522;-72
2023/08/10 01:03:12;;;;;;;1.83;1.50;;;23.40;53.50;;;;;;5014751;28;20415;-72
2023/08/10 01:06:10;;;;;;;1.60;1.33;;;23.40;53.50;;;;;;5014635;28;20407;-72
2023/08/10 01:09:20;;;;;;;2.10;1.50;;;23.40;53.50;;;;;;4999751;28;20195;-70
2023/08/10 01:12:01;;;;;;;1.80;1.40;;;23.40;53.50;;;;;;4970498;28;20447;-70
2023/08/10 01:14:42;;;;;;;2.00;1.27;;;23.40;53.60;;;;;;5013967;28;20469;-70
2023/08/10 01:17:14;;;;;;;2.33;1.43;;;23.40;53.50;;;;;;5012776;28;20404;-70
2023/08/10 01:19:42;;;;;;;2.20;1.67;;;23.40;53.60;;;;;;5012878;28;20431;-70
2023/08/10 01:22:29;;;;;;;2.53;1.70;;;23.30;53.50;;;;;;5014298;28;20463;-70
2023/08/10 01:25:06;;;;;;;2.37;1.50;;;23.40;53.60;;;;;;5014675;28;20783;-70
2023/08/10 01:27:33;;;;;;;4.20;1.70;;;23.40;53.50;;;;;;5014351;28;20433;-70
2023/08/10 01:30:00;;;;;;;1.60;1.20;;;23.30;53.50;;;;;;4996629;28;20474;-71
2023/08/10 01:32:30;;;;;;;2.13;1.93;;;23.30;53.50;;;;;;5014099;28;20486;-70
2023/08/10 01:34:59;;;;;;;2.30;1.60;;;23.30;53.50;;;;;;5014261;28;20486;-70
2023/08/10 01:37:26;;;;;;;1.60;1.40;;;23.30;53.50;;;;;;5014378;28;20419;-70
2023/08/10 01:39:52;;;;;;;2.27;1.50;;;23.30;53.50;;;;;;5013923;28;20842;-70
2023/08/10 01:42:18;;;;;;;1.30;1.10;;;23.30;53.50;;;;;;5014039;28;20811;-71
2023/08/10 01:44:44;;;;;;;2.07;1.43;;;23.30;53.50;;;;;;5013883;28;20411;-71
2023/08/10 01:47:25;;;;;;;1.67;1.30;;;23.30;53.50;;;;;;5014154;28;20507;-70
2023/08/10 01:49:55;;;;;;;1.93;1.40;;;23.30;54.00;;;;;;4995775;28;20196;-70
2023/08/10 01:52:25;;;;;;;2.00;1.33;;;23.30;53.50;;;;;;4995832;28;20452;-70
2023/08/10 01:54:51;;;;;;;1.97;1.10;;;23.30;53.50;;;;;;5013846;28;20462;-70
2023/08/10 01:57:18;;;;;;;3.50;1.60;;;23.30;53.50;;;;;;5013707;28;20415;-71
2023/08/10 01:59:43;;;;;;;1.77;1.40;;;23.30;53.50;;;;;;5013625;28;20462;-70
2023/08/10 02:02:09;;;;;;;1.80;1.50;;;23.30;53.50;;;;;;5013593;28;20831;-70
2023/08/10 02:04:35;;;;;;;1.77;1.17;;;23.30;53.50;;;;;;5013622;28;20183;-70
2023/08/10 02:07:01;;;;;;;1.80;1.50;;;23.30;53.50;;;;;;5013614;28;20180;-70
2023/08/10 02:09:27;;;;;;;1.80;1.63;;;23.30;53.50;;;;;;5013512;28;20625;-70
2023/08/10 02:11:53;;;;;;;1.63;1.30;;;23.30;53.40;;;;;;5013686;28;20518;-70
2023/08/10 02:14:19;;;;;;;3.17;1.80;;;23.30;53.50;;;;;;5013760;28;20169;-70
2023/08/10 02:16:44;;;;;;;2.20;1.53;;;23.30;53.40;;;;;;5013414;28;20196;-70
2023/08/10 02:19:10;;;;;;;1.90;1.30;;;23.30;53.40;;;;;;5013328;28;20474;-70
2023/08/10 02:21:36;;;;;;;1.80;1.47;;;23.30;53.40;;;;;;5013324;28;20169;-70
2023/08/10 02:24:01;;;;;;;2.63;1.50;;;23.30;53.40;;;;;;5013330;28;20168;-70
2023/08/10 02:26:27;;;;;;;1.77;1.30;;;23.30;53.30;;;;;;5013300;28;20541;-70
2023/08/10 02:28:52;;;;;;;2.50;1.53;;;23.30;53.30;;;;;;5013210;28;20176;-70
2023/08/10 02:31:18;;;;;;;1.90;1.37;;;23.30;53.30;;;;;;5013185;28;20256;-70
2023/08/10 02:33:43;;;;;;;1.83;1.50;;;23.30;53.30;;;;;;4995402;28;20696;-70
2023/08/10 02:36:09;;;;;;;2.00;1.20;;;23.30;53.30;;;;;;5013081;28;20247;-71
2023/08/10 02:38:35;;;;;;;1.87;1.40;;;23.30;53.30;;;;;;5013273;28;20219;-69
2023/08/10 02:41:00;;;;;;;1.87;1.67;;;23.30;53.30;;;;;;5012827;28;20716;-71
2023/08/10 02:43:26;;;;;;;1.97;1.37;;;23.30;53.30;;;;;;5012942;28;20449;-70
2023/08/10 02:45:52;;;;;;;3.10;1.23;;;23.30;53.30;;;;;;5012989;28;20661;-70
2023/08/10 02:48:17;;;;;;;4.23;1.53;;;23.30;53.30;;;;;;5012850;28;20471;-71
2023/08/10 02:50:43;;;;;;;2.70;1.40;;;23.30;53.30;;;;;;5012798;28;20192;-70
2023/08/10 02:53:08;;;;;;;1.50;1.30;;;23.30;53.30;;;;;;5012761;28;20275;-71
2023/08/10 02:55:34;;;;;;;2.03;1.40;;;23.30;53.20;;;;;;5012781;28;20172;-70
2023/08/10 02:58:01;;;;;;;1.57;1.27;;;23.30;53.20;;;;;;5012986;28;20760;-70
2023/08/10 03:00:26;;;;;;;1.70;1.20;;;23.30;53.20;;;;;;5012567;28;20335;-70
2023/08/10 03:02:52;;;;;;;1.57;1.33;;;23.30;53.20;;;;;;5012356;28;20498;-70
2023/08/10 03:05:18;;;;;;;1.53;1.30;;;23.30;53.20;;;;;;5012482;28;20172;-70
2023/08/10 03:07:45;;;;;;;1.33;1.20;;;23.30;53.20;;;;;;5012524;28;20411;-69
2023/08/10 03:10:11;;;;;;;1.40;1.20;;;23.30;53.30;;;;;;5012478;28;20188;-70
2023/08/10 03:12:37;;;;;;;1.77;1.30;;;23.30;53.20;;;;;;5012353;28;20447;-70
2023/08/10 03:15:05;;;;;;;2.07;1.40;;;23.30;53.20;;;;;;5012405;28;20403;-70
2023/08/10 03:17:31;;;;;;;1.30;1.13;;;23.30;53.20;;;;;;5012412;28;20416;-70
2023/08/10 03:19:57;;;;;;;1.53;1.20;;;23.30;53.20;;;;;;5012287;28;20514;-70
2023/08/10 03:22:25;;;;;;;1.30;1.10;;;23.30;53.20;;;;;;5012279;28;20748;-70
2023/08/10 03:24:51;;;;;;;4.10;1.40;;;23.30;53.20;;;;;;5012315;28;20172;-70
2023/08/10 03:27:16;;;;;;;1.87;1.30;;;23.30;53.30;;;;;;4994573;28;20816;-70
2023/08/10 03:29:42;;;;;;;1.30;1.20;;;23.30;53.30;;;;;;5012157;28;20196;-70
2023/08/10 03:32:08;;;;;;;2.00;1.13;;;23.30;53.30;;;;;;5012148;28;20687;-70
2023/08/10 03:34:33;;;;;;;1.70;1.40;;;23.30;53.20;;;;;;5012247;28;20169;-70
2023/08/10 03:36:59;;;;;;;1.10;0.90;;;23.30;53.30;;;;;;5012126;28;20239;-70
2023/08/10 03:39:24;;;;;;;1.47;1.37;;;23.20;53.20;;;;;;5012320;28;20622;-70
2023/08/10 03:41:50;;;;;;;1.87;1.40;;;23.20;53.10;;;;;;5012075;28;20219;-70
2023/08/10 03:44:16;;;;;;;1.60;1.33;;;23.20;53.10;;;;;;5012156;28;20675;-71
2023/08/10 03:46:42;;;;;;;3.53;1.47;;;23.20;53.10;;;;;;5012306;28;20177;-70
2023/08/10 03:49:07;;;;;;;2.07;1.30;;;23.20;53.10;;;;;;5012025;28;20427;-70
2023/08/10 03:51:33;;;;;;;1.47;1.10;;;23.20;53.10;;;;;;5011784;28;20592;-70
2023/08/10 03:53:58;;;;;;;1.33;1.03;;;23.20;53.10;;;;;;5012133;28;20208;-70
2023/08/10 03:56:24;;;;;;;2.10;1.27;;;23.20;53.10;;;;;;4994647;28;20168;-71
2023/08/10 03:58:49;;;;;;;1.50;1.30;;;23.20;53.10;;;;;;4994469;28;20218;-71
2023/08/10 04:01:15;;;;;;;1.40;1.20;;;23.20;53.10;;;;;;5011886;28;20182;-70
2023/08/10 04:03:41;;;;;;;1.80;1.20;;;23.20;53.10;;;;;;5011810;28;20165;-67
2023/08/10 04:06:07;;;;;;;2.10;1.50;;;23.20;53.10;;;;;;5011863;28;20180;-67
2023/08/10 04:08:32;;;;;;;1.97;1.17;;;23.20;53.10;;;;;;5011764;28;20403;-69
2023/08/10 04:10:59;;;;;;;1.67;1.30;;;23.20;53.10;;;;;;5011751;28;20218;-68
2023/08/10 04:13:24;;;;;;;1.93;1.10;;;23.20;53.10;;;;;;5011661;28;20542;-68
2023/08/10 04:15:50;;;;;;;1.50;1.40;;;23.20;53.10;;;;;;5015572;28;20164;-69
2023/08/10 04:18:16;;;;;;;1.50;1.40;;;23.20;53.10;;;;;;5015549;28;20177;-68
2023/08/10 04:20:42;;;;;;;1.97;1.43;;;23.20;53.00;;;;;;5015432;28;20730;-69
2023/08/10 04:23:07;;;;;;;1.40;1.27;;;23.20;53.00;;;;;;5015443;28;20411;-69
2023/08/10 04:25:33;;;;;;;2.70;1.50;;;23.20;53.10;;;;;;5015726;28;20179;-68
2023/08/10 04:27:58;;;;;;;1.43;1.33;;;23.20;53.00;;;;;;5015383;28;20259;-70
2023/08/10 04:30:29;;;;;;;1.60;1.40;;;23.20;53.00;;;;;;5015555;28;20552;-71
2023/08/10 04:32:55;;;;;;;2.10;1.37;;;23.20;53.10;;;;;;5015598;28;20188;-71
2023/08/10 04:35:21;;;;;;;2.80;1.53;;;23.20;53.10;;;;;;5015208;28;20414;-71
2023/08/10 04:37:48;;;;;;;1.43;1.30;;;23.20;53.10;;;;;;5015169;28;20498;-71
2023/08/10 04:40:14;;;;;;;1.70;1.60;;;23.20;53.10;;;;;;5014943;28;20454;-69
2023/08/10 04:42:40;;;;;;;2.17;1.47;;;23.20;53.10;;;;;;5015071;28;20411;-71
2023/08/10 04:45:07;;;;;;;1.83;1.50;;;23.20;53.10;;;;;;5015317;28;20187;-71
2023/08/10 04:47:32;;;;;;;1.37;1.23;;;23.20;53.10;;;;;;5014955;28;20442;-70
2023/08/10 04:49:58;;;;;;;1.60;1.20;;;23.20;53.10;;;;;;5015170;28;20431;-70
2023/08/10 04:52:24;;;;;;;1.30;1.10;;;23.20;53.10;;;;;;5014856;28;20200;-71
2023/08/10 04:54:49;;;;;;;1.90;1.40;;;23.20;53.10;;;;;;5014880;28;20168;-68
2023/08/10 04:57:15;;;;;;;1.70;1.60;;;23.20;53.00;;;;;;5014819;28;20664;-70
2023/08/10 04:59:41;;;;;;;2.10;1.30;;;23.20;53.00;;;;;;5014981;28;20231;-69
2023/08/10 05:02:06;;;;;;;1.70;1.50;;;23.20;53.00;;;;;;5014754;28;20223;-68
2023/08/10 05:04:32;;;;;;;2.60;1.40;;;23.20;53.00;;;;;;5014714;28;20183;-68
2023/08/10 05:06:57;;;;;;;1.70;1.40;;;23.20;53.00;;;;;;5014622;28;20179;-70
2023/08/10 05:09:23;;;;;;;1.80;1.50;;;23.20;53.00;;;;;;5014563;28;20271;-69
2023/08/10 05:11:48;;;;;;;1.87;1.60;;;23.20;52.90;;;;;;5014522;28;20746;-70
2023/08/10 05:14:14;;;;;;;2.17;1.50;;;23.20;52.90;;;;;;5014481;28;20173;-70
2023/08/10 05:16:40;;;;;;;1.57;1.47;;;23.20;52.90;;;;;;5014465;28;20195;-70
2023/08/10 05:19:05;;;;;;;3.33;1.80;;;23.20;52.90;;;;;;4996662;28;20172;-70
2023/08/10 05:21:31;;;;;;;1.90;1.50;;;23.20;52.90;;;;;;5014393;28;20180;-68
2023/08/10 05:23:56;;;;;;;1.57;1.40;;;23.20;52.90;;;;;;5014311;28;20657;-70
2023/08/10 05:26:22;;;;;;;1.93;1.60;;;23.20;52.90;;;;;;5014114;28;20179;-70
2023/08/10 05:28:47;;;;;;;1.60;1.50;;;23.20;52.90;;;;;;5014142;28;20211;-70
2023/08/10 05:31:13;;;;;;;2.10;1.40;;;23.20;52.90;;;;;;4996594;28;20275;-70
2023/08/10 05:33:39;;;;;;;3.10;1.50;;;23.20;52.80;;;;;;5014108;28;20195;-70
2023/08/10 05:36:07;;;;;;;2.13;1.90;;;23.20;52.80;;;;;;5014083;28;20169;-70
2023/08/10 05:38:32;;;;;;;2.67;1.77;;;23.20;52.80;;;;;;5014033;28;20470;-70
2023/08/10 05:40:58;;;;;;;1.50;1.37;;;23.20;53.40;;;;;;4996141;28;20836;-70
2023/08/10 05:43:23;;;;;;;2.00;1.63;;;23.20;52.80;;;;;;5013867;28;20534;-70
2023/08/10 05:45:49;;;;;;;1.63;1.30;;;23.20;52.80;;;;;;5013861;28;20176;-69
2023/08/10 05:48:15;;;;;;;2.10;1.40;;;23.20;52.80;;;;;;5014108;28;20200;-71
2023/08/10 05:50:41;;;;;;;1.33;1.17;;;23.20;52.80;;;;;;5013777;28;20634;-70
2023/08/10 05:53:07;;;;;;;1.87;1.57;;;23.20;52.90;;;;;;5013741;28;20279;-70
2023/08/10 05:55:33;;;;;;;2.33;1.60;;;23.20;52.80;;;;;;5013907;28;20499;-70
2023/08/10 05:57:59;;;;;;;1.67;1.40;;;23.20;52.80;;;;;;5013655;28;20176;-70
2023/08/10 06:00:26;;;;;;;3.00;1.77;;;23.20;52.80;;;;;;5013521;28;20470;-70
2023/08/10 06:02:53;;;;;;;1.47;1.27;;;23.20;52.80;;;;;;5013599;28;20498;-70
2023/08/10 06:05:18;;;;;;;1.67;1.40;;;23.20;52.80;;;;;;5013593;28;20442;-70
2023/08/10 06:07:47;;;;;;;2.03;1.57;;;23.20;52.80;;;;;;4995895;28;20991;-68
2023/08/10 06:10:14;;;;;;;2.27;1.70;;;23.20;52.70;;;;;;5013415;28;20192;-70
2023/08/10 06:12:41;;;;;;;1.40;1.30;;;23.20;52.70;;;;;;5013353;28;20455;-69
2023/08/10 06:15:08;;;;;;;2.00;1.50;;;23.20;52.70;;;;;;5013329;28;20502;-70
2023/08/10 06:17:33;;;;;;;1.77;1.63;;;23.20;52.70;;;;;;5013264;28;20437;-70
2023/08/10 06:19:59;;;;;;;2.30;1.20;;;23.20;52.70;;;;;;5013272;28;20423;-69
2023/08/10 06:22:24;;;;;;;2.00;1.63;;;23.20;52.70;;;;;;4995692;28;20176;-69
2023/08/10 06:24:50;;;;;;;1.87;1.50;;;23.20;52.60;;;;;;5013289;28;20672;-67
2023/08/10 06:27:16;;;;;;;2.77;1.60;;;23.20;52.60;;;;;;5013181;28;20185;-70
2023/08/10 06:29:42;;;;;;;1.40;1.30;;;23.20;52.70;;;;;;5012928;28;20432;-68
2023/08/10 06:32:08;;;;;;;1.80;1.40;;;23.20;52.70;;;;;;5012728;28;20676;-70
2023/08/10 06:34:36;;;;;;;1.60;1.30;;;23.20;52.70;;;;;;5012996;28;20168;-71
2023/08/10 06:37:02;;;;;;;2.30;1.70;;;23.20;52.60;;;;;;5012491;28;20550;-70
2023/08/10 06:39:29;;;;;;;1.97;1.60;;;23.20;52.60;;;;;;5012158;28;20443;-70
2023/08/10 06:41:54;;;;;;;1.90;1.30;;;23.20;52.60;;;;;;4995282;28;20184;-71
2023/08/10 06:44:20;;;;;;;1.33;1.23;;;23.20;52.60;;;;;;5011764;28;20399;-70
2023/08/10 06:46:46;;;;;;;1.50;1.30;;;23.20;52.70;;;;;;4993723;28;20370;-69
2023/08/10 06:49:11;;;;;;;2.00;1.60;;;23.20;52.60;;;;;;5012684;28;20187;-70
2023/08/10 06:51:37;;;;;;;1.47;1.37;;;23.20;52.60;;;;;;5012886;28;20175;-70
2023/08/10 06:54:03;;;;;;;2.20;1.60;;;23.20;52.60;;;;;;5011555;28;20567;-71
2023/08/10 06:56:29;;;;;;;2.03;1.47;;;23.20;52.60;;;;;;5012946;28;20188;-69
2023/08/10 06:58:54;;;;;;;2.30;1.70;;;23.20;52.60;;;;;;5010898;28;20172;-70
2023/08/10 07:01:20;;;;;;;2.03;1.63;;;23.20;52.60;;;;;;5012619;28;20507;-69
2023/08/10 07:03:46;;;;;;;3.03;2.37;;;23.20;52.60;;;;;;5011809;28;20192;-70
2023/08/10 07:06:12;;;;;;;3.90;2.00;;;23.20;52.60;;;;;;5011010;28;20181;-70
2023/08/10 07:08:38;;;;;;;2.77;1.90;;;23.20;52.70;;;;;;5011562;28;20498;-70
2023/08/10 07:11:03;;;;;;;3.37;2.10;;;23.20;52.70;;;;;;5012204;28;20188;-70
2023/08/10 07:13:29;;;;;;;9.87;2.30;;;23.20;52.70;;;;;;5012253;28;20202;-69
2023/08/10 07:15:55;;;;;;;4.30;2.90;;;23.20;52.70;;;;;;5012325;28;20638;-70
2023/08/10 07:18:20;;;;;;;4.10;2.30;;;23.20;52.70;;;;;;5012138;28;20419;-71
2023/08/10 07:20:46;;;;;;;3.70;2.20;;;23.20;52.70;;;;;;5012124;28;20228;-68
2023/08/10 07:23:14;;;;;;;2.90;2.23;;;23.20;52.70;;;;;;5012276;28;20180;-71
2023/08/10 07:25:39;;;;;;;3.00;2.63;;;23.20;52.70;;;;;;4994973;28;20176;-68
2023/08/10 07:28:06;;;;;;;2.10;1.90;;;23.20;52.70;;;;;;5012174;28;20490;-69
2023/08/10 07:30:35;;;;;;;3.03;2.60;;;23.20;52.80;;;;;;5012298;28;20196;-69
2023/08/10 07:33:00;;;;;;;4.70;2.57;;;23.20;52.80;;;;;;5012208;28;20504;-70
2023/08/10 07:35:26;;;;;;;9.17;2.37;;;23.20;52.90;;;;;;5011942;28;20419;-69
2023/08/10 07:37:52;;;;;;;5.83;3.43;;;23.20;52.80;;;;;;5012068;28;20175;-71
2023/08/10 07:40:20;;;;;;;3.87;2.03;;;23.20;52.80;;;;;;5012049;28;20449;-69
2023/08/10 07:42:48;;;;;;;3.10;2.50;;;23.20;52.80;;;;;;5012031;28;20650;-70
2023/08/10 07:45:13;;;;;;;3.40;2.50;;;23.20;53.40;;;;;;4994355;28;20435;-71
2023/08/10 07:47:39;;;;;;;5.33;2.60;;;23.20;52.80;;;;;;5012129;28;20411;-69
2023/08/10 07:50:05;;;;;;;3.00;2.70;;;23.20;52.80;;;;;;5014731;28;20284;-70
2023/08/10 07:52:31;;;;;;;3.57;2.43;;;23.20;52.80;;;;;;4998619;28;20455;-69
2023/08/10 07:54:57;;;;;;;2.70;2.30;;;23.20;52.80;;;;;;5016055;28;20411;-70
2023/08/10 07:57:23;;;;;;;3.90;2.63;;;23.20;52.80;;;;;;4998430;28;20176;-70
2023/08/10 07:59:48;;;;;;;3.40;2.60;;;23.20;52.80;;;;;;5015866;28;20199;-70
2023/08/10 08:02:14;;;;;;;6.33;2.70;;;23.20;52.80;;;;;;5016109;28;20211;-70
2023/08/10 08:04:39;;;;;;;3.17;2.67;;;23.20;53.40;;;;;;5016052;28;20168;-70
2023/08/10 08:07:05;;;;;;;2.60;2.40;;;23.20;52.90;;;;;;5015971;28;20592;-70
2023/08/10 08:09:31;;;;;;;5.00;2.33;;;23.20;52.80;;;;;;5014529;28;20199;-70
2023/08/10 08:11:56;;;;;;;3.80;2.40;;;23.20;52.90;;;;;;5015888;28;20576;-70
2023/08/10 08:14:22;;;;;;;3.00;2.47;;;23.20;52.90;;;;;;5016072;28;20177;-70
2023/08/10 08:16:47;;;;;;;2.80;2.53;;;23.20;52.90;;;;;;5015904;28;20207;-70
2023/08/10 08:19:13;;;;;;;2.97;2.33;;;23.20;52.90;;;;;;5015857;28;20203;-69
2023/08/10 08:21:39;;;;;;;3.20;2.60;;;23.20;53.00;;;;;;5015968;28;20660;-69
2023/08/10 08:24:05;;;;;;;2.70;2.40;;;23.20;53.00;;;;;;5016098;28;20649;-70
2023/08/10 08:26:32;;;;;;;2.60;1.97;;;23.20;52.90;;;;;;4998266;28;20177;-70
2023/08/10 08:28:58;;;;;;;2.30;2.10;;;23.20;53.00;;;;;;5015974;28;20419;-70
2023/08/10 08:31:25;;;;;;;2.93;2.40;;;23.30;53.10;;;;;;5016152;28;20423;-69
2023/08/10 08:33:51;;;;;;;2.73;2.00;;;23.30;53.10;;;;;;5015719;28;20979;-69
2023/08/10 08:36:17;;;;;;;2.10;1.90;;;23.30;53.10;;;;;;4997943;28;20411;-69
2023/08/10 08:38:43;;;;;;;2.50;2.30;;;23.30;53.20;;;;;;5015036;28;20429;-69
2023/08/10 08:41:09;;;;;;;2.20;2.00;;;23.30;53.20;;;;;;5014265;28;20657;-70
2023/08/10 08:43:37;;;;;;;5.00;2.70;;;23.30;53.20;;;;;;5015439;28;20176;-68
2023/08/10 08:46:05;;;;;;;3.53;2.47;;;23.30;53.20;;;;;;5014793;28;20415;-71
2023/08/10 08:48:31;;;;;;;3.37;2.57;;;23.30;53.20;;;;;;5015387;28;20415;-69
2023/08/10 08:50:57;;;;;;;2.47;2.27;;;23.30;53.20;;;;;;5015212;28;20802;-70
2023/08/10 08:53:24;;;;;;;3.20;2.53;;;23.40;53.20;;;;;;5015206;28;20239;-69
2023/08/10 08:55:50;;;;;;;3.47;2.10;;;23.40;53.20;;;;;;4997518;28;20795;-70
2023/08/10 08:58:17;;;;;;;4.80;2.57;;;23.40;53.20;;;;;;5015341;28;20438;-69
2023/08/10 09:00:50;;;;;;;3.37;2.43;;;23.40;53.20;;;;;;4996749;28;20438;-69
2023/08/10 09:03:17;;;;;;;4.40;2.20;;;23.40;53.20;;;;;;5014831;28;20426;-69
2023/08/10 09:05:45;;;;;;;2.17;1.97;;;23.40;53.20;;;;;;5014997;28;20442;-70
2023/08/10 09:08:16;;;;;;;2.47;2.27;;;23.40;53.10;;;;;;5014665;28;20417;-69
2023/08/10 09:10:46;;;;;;;3.00;2.20;;;23.40;53.10;;;;;;4996990;28;20470;-67
2023/08/10 09:13:16;;;;;;;2.10;1.90;;;23.40;53.10;;;;;;5014751;28;20449;-69
2023/08/10 09:15:42;;;;;;;3.00;2.27;;;23.40;53.70;;;;;;4996998;28;20853;-67
2023/08/10 09:18:07;;;;;;;2.00;1.87;;;23.40;53.10;;;;;;5014476;28;20442;-69
2023/08/10 09:20:33;;;;;;;2.80;2.50;;;23.40;53.10;;;;;;5014359;28;20211;-70
2023/08/10 09:23:00;;;;;;;2.90;2.60;;;23.40;53.20;;;;;;5014662;28;20713;-69
2023/08/10 09:25:26;;;;;;;2.70;2.03;;;23.40;53.10;;;;;;5014277;28;20923;-71
2023/08/10 09:27:52;;;;;;;2.73;2.33;;;23.40;53.10;;;;;;5014295;28;20415;-70
2023/08/10 09:30:19;;;;;;;2.33;2.00;;;23.40;53.10;;;;;;5014183;28;20423;-68
2023/08/10 09:32:45;;;;;;;2.03;1.83;;;23.50;53.20;;;;;;5014110;28;20865;-71
2023/08/10 09:35:16;;;;;;;2.10;1.90;;;23.50;53.20;;;;;;5013944;28;20519;-69
2023/08/10 09:37:42;;;;;;;2.37;2.13;;;23.50;53.20;;;;;;5014112;28;20168;-70
2023/08/10 09:40:11;;;;;;;2.33;2.13;;;23.50;53.10;;;;;;5013906;28;20462;-69
2023/08/10 09:42:39;;;;;;;3.63;2.40;;;23.50;53.10;;;;;;5014026;28;20412;-70
2023/08/10 09:45:08;;;;;;;2.73;2.30;;;23.50;53.10;;;;;;4996296;28;20431;-68
2023/08/10 09:47:36;;;;;;;1.70;1.60;;;23.50;53.10;;;;;;5014167;28;20972;-69
2023/08/10 09:50:05;;;;;;;2.00;1.60;;;23.50;53.10;;;;;;5013821;28;20498;-68
2023/08/10 09:52:36;;;;;;;2.20;2.00;;;23.50;53.10;;;;;;5010937;28;20545;-70
2023/08/10 09:55:02;;;;;;;3.37;2.10;;;23.50;53.10;;;;;;5013803;28;20387;-68
2023/08/10 09:57:28;;;;;;;3.70;1.90;;;23.50;53.10;;;;;;5013583;28;20399;-69
2023/08/10 09:59:56;;;;;;;2.27;2.07;;;23.50;53.00;;;;;;4995842;28;20969;-68
2023/08/10 10:02:24;;;;;;;1.90;1.70;;;23.50;53.10;;;;;;5013571;28;20168;-68
2023/08/10 10:04:50;;;;;;;2.07;1.83;;;23.50;53.00;;;;;;5013297;28;20425;-68
2023/08/10 10:07:23;;;;;;;2.30;1.87;;;23.50;53.60;;;;;;4995654;28;20415;-69
2023/08/10 10:09:50;;;;;;;2.20;1.83;;;23.50;53.00;;;;;;5013721;28;20454;-68
2023/08/10 10:12:16;;;;;;;2.10;1.90;;;23.50;53.00;;;;;;4994699;28;20458;-67
2023/08/10 10:14:44;;;;;;;2.07;1.60;;;23.50;53.00;;;;;;4995519;28;20415;-70
2023/08/10 10:17:12;;;;;;;1.80;1.70;;;23.50;53.00;;;;;;5013556;28;20583;-69
2023/08/10 10:19:39;;;;;;;2.30;1.83;;;23.60;53.10;;;;;;5013410;28;20429;-67
2023/08/10 10:22:05;;;;;;;2.10;1.70;;;23.60;53.10;;;;;;4995576;28;20442;-68
2023/08/10 10:24:34;;;;;;;2.10;1.87;;;23.60;53.10;;;;;;5013443;28;20746;-68
2023/08/10 10:27:05;;;;;;;2.67;1.70;;;23.60;53.10;;;;;;5013107;28;20442;-68
2023/08/10 10:29:51;;;;;;;2.23;1.50;;;23.60;53.10;;;;;;5013057;28;20503;-68
2023/08/10 10:32:20;;;;;;;2.17;1.63;;;23.60;53.10;;;;;;5012867;28;20453;-69
2023/08/10 10:34:48;;;;;;;3.87;1.70;;;23.60;53.10;;;;;;4995376;28;20506;-67
2023/08/10 10:37:20;;;;;;;1.77;1.53;;;23.60;53.10;;;;;;5012913;28;20808;-68
2023/08/10 10:39:49;;;;;;;5.83;2.03;;;23.60;53.10;;;;;;5013043;28;20486;-68
2023/08/10 10:42:16;;;;;;;3.63;1.57;;;23.60;53.10;;;;;;5013162;28;20411;-68
2023/08/10 10:45:01;;;;;;;1.63;1.50;;;23.60;53.10;;;;;;5012555;28;20423;-69
2023/08/10 10:47:36;;;;;;;1.40;1.30;;;23.60;53.10;;;;;;5012784;28;20407;-68
2023/08/10 10:50:17;;;;;;;2.43;1.70;;;23.60;53.10;;;;;;5012622;28;20431;-69
2023/08/10 10:53:05;;;;;;;1.70;1.47;;;23.60;53.10;;;;;;5012718;28;20477;-69
2023/08/10 10:55:33;;;;;;;2.33;1.60;;;23.60;53.10;;;;;;5012613;28;20403;-70
2023/08/10 10:58:02;;;;;;;2.10;1.90;;;23.60;53.10;;;;;;5012504;28;20407;-69
2023/08/10 11:00:27;;;;;;;2.20;1.90;;;23.60;53.10;;;;;;5012611;28;20431;-70
2023/08/10 11:02:54;;;;;;;1.83;1.60;;;23.70;53.20;;;;;;5012355;28;20498;-69
2023/08/10 11:05:20;;;;;;;2.07;1.80;;;23.70;53.20;;;;;;5012506;28;20168;-69
2023/08/10 11:07:50;;;;;;;1.80;1.70;;;23.70;53.20;;;;;;5012568;28;20434;-69
2023/08/10 11:10:18;;;;;;;2.20;1.50;;;23.70;53.20;;;;;;5012671;28;20431;-69
2023/08/10 11:12:45;;;;;;;1.73;1.63;;;23.70;53.10;;;;;;5012178;28;20455;-69
2023/08/10 11:15:13;;;;;;;1.77;1.67;;;23.70;53.10;;;;;;4994704;28;20419;-68
2023/08/10 11:17:43;;;;;;;2.40;1.50;;;23.70;53.10;;;;;;4994736;28;20443;-69
2023/08/10 11:20:14;;;;;;;2.47;1.70;;;23.70;53.10;;;;;;5012154;28;20430;-69
2023/08/10 11:22:47;;;;;;;2.30;1.53;;;23.70;53.10;;;;;;5012000;28;20412;-68
2023/08/10 11:25:15;;;;;;;1.90;1.80;;;23.70;53.10;;;;;;5012124;28;20403;-69
2023/08/10 11:27:48;;;;;;;2.10;1.90;;;23.70;53.10;;;;;;5012030;28;20423;-68
2023/08/10 11:30:19;;;;;;;1.77;1.67;;;23.70;53.10;;;;;;5012370;28;20470;-69
2023/08/10 11:32:47;;;;;;;7.30;2.23;;;23.70;53.20;;;;;;5012141;28;20442;-68
2023/08/10 11:35:17;;;;;;;1.90;1.50;;;23.70;53.10;;;;;;5012201;28;20407;-69
2023/08/10 11:37:43;;;;;;;2.50;1.57;;;23.70;53.10;;;;;;5012384;28;21046;-69
2023/08/10 11:40:17;;;;;;;3.03;2.10;;;23.70;53.10;;;;;;5011772;28;20449;-69
2023/08/10 11:42:47;;;;;;;2.00;1.73;;;23.70;53.10;;;;;;5012052;28;20931;-68
2023/08/10 11:45:20;;;;;;;3.80;1.50;;;23.70;53.10;;;;;;5012130;28;20418;-69
2023/08/10 11:47:53;;;;;;;1.80;1.50;;;23.70;53.10;;;;;;5011973;28;20388;-67
2023/08/10 11:50:20;;;;;;;2.00;1.43;;;23.70;53.10;;;;;;5012217;28;20925;-70
2023/08/10 11:52:49;;;;;;;2.30;1.90;;;23.80;53.20;;;;;;5011772;28;20458;-68
2023/08/10 11:55:16;;;;;;;2.20;1.40;;;23.70;53.10;;;;;;5011888;28;20498;-69
2023/08/10 11:57:49;;;;;;;1.87;1.77;;;23.80;53.20;;;;;;4993941;28;20416;-70
2023/08/10 12:00:33;;;;;;;2.07;1.80;;;23.70;53.10;;;;;;5011914;28;20490;-70
2023/08/10 12:03:04;;;;;;;1.53;1.37;;;23.80;53.10;;;;;;5011761;28;20395;-70
2023/08/10 12:05:45;;;;;;;2.10;1.83;;;23.70;53.10;;;;;;5011579;28;20469;-68
2023/08/10 12:08:14;;;;;;;2.90;1.97;;;23.80;53.20;;;;;;5011662;28;20388;-69
2023/08/10 12:10:41;;;;;;;1.97;1.80;;;23.80;53.20;;;;;;5011444;28;20565;-70
2023/08/10 12:13:10;;;;;;;1.97;1.57;;;23.80;53.20;;;;;;5011469;28;20455;-69
2023/08/10 12:15:37;;;;;;;2.17;1.73;;;23.80;53.20;;;;;;5011652;28;20422;-68
2023/08/10 12:18:05;;;;;;;1.67;1.40;;;23.80;53.20;;;;;;4993971;28;20469;-68
2023/08/10 12:20:31;;;;;;;2.23;2.03;;;23.80;53.10;;;;;;4993987;28;20781;-69
2023/08/10 12:22:57;;;;;;;2.17;1.80;;;23.80;53.10;;;;;;5011672;28;20414;-71
2023/08/10 12:25:23;;;;;;;2.40;1.50;;;23.80;53.10;;;;;;5011542;28;20419;-69
2023/08/10 12:27:48;;;;;;;1.70;1.60;;;23.80;53.10;;;;;;5011455;28;20616;-69
2023/08/10 12:30:15;;;;;;;1.97;1.50;;;23.80;53.10;;;;;;5011742;28;20860;-69
2023/08/10 12:32:40;;;;;;;1.70;1.60;;;23.80;53.10;;;;;;5011423;28;20201;-70
2023/08/10 12:35:06;;;;;;;2.10;1.50;;;23.80;53.10;;;;;;5012561;28;20790;-70
2023/08/10 12:37:32;;;;;;;2.60;1.83;;;23.80;53.10;;;;;;5014990;28;20177;-69
2023/08/10 12:39:57;;;;;;;2.03;1.50;;;23.80;53.10;;;;;;5014931;28;20212;-68
2023/08/10 12:42:24;;;;;;;1.60;1.50;;;23.80;53.20;;;;;;5015069;28;20187;-68
2023/08/10 12:44:51;;;;;;;2.70;1.73;;;23.90;53.20;;;;;;5015366;28;20184;-69
2023/08/10 12:47:17;;;;;;;2.70;1.50;;;23.90;53.20;;;;;;5014871;28;20419;-70
2023/08/10 12:49:43;;;;;;;1.90;1.70;;;23.80;53.10;;;;;;5014904;28;20430;-70